Time;durP1;ratioP1;P1;durP2;ratioP2;P2;SDS_P1;SDS_P2;PMS_P1;PMS_P2;Temp;Humidity;BMP_temperature;BMP_pressure;BME280_temperature;BME280_humidity;BME280_pressure;Samples;Min_cycle;Max_cycle;Signal;HPM_P1;HPM_P2
2024/01/03 00:00:43;;;;;;;253.30;94.28;;;;;;;0.90;97.30;98941.88;4881915;29;20048;-86
2024/01/03 00:03:35;;;;;;;301.13;120.22;;;;;;;0.96;96.85;98950.84;4896876;29;20059;-85
2024/01/03 00:06:24;;;;;;;323.90;118.82;;;;;;;0.97;97.05;98940.19;4906902;29;20040;-86
2024/01/03 00:09:11;;;;;;;386.67;134.77;;;;;;;0.96;97.26;98954.25;4883515;29;20056;-82
2024/01/03 00:12:00;;;;;;;406.98;139.00;;;;;;;0.97;96.66;98958.50;4890382;29;20036;-83
2024/01/03 00:14:45;;;;;;;389.95;169.65;;;;;;;0.94;97.01;98956.25;4890982;29;20483;-85
2024/01/03 00:17:31;;;;;;;372.60;171.40;;;;;;;0.83;96.99;98957.47;4908106;29;20491;-85
2024/01/03 00:20:18;;;;;;;339.40;161.65;;;;;;;0.84;96.75;98959.06;4897474;29;20040;-82
2024/01/03 00:23:06;;;;;;;348.48;162.73;;;;;;;0.83;96.60;98962.69;4878229;29;20048;-87
2024/01/03 00:25:51;;;;;;;322.35;149.20;;;;;;;0.86;97.45;98972.81;4897319;29;20048;-86
2024/01/03 00:28:37;;;;;;;355.02;167.48;;;;;;;0.95;96.72;98980.63;4904130;29;20040;-82
2024/01/03 00:31:43;;;;;;;369.70;179.73;;;;;;;0.96;96.96;98964.72;4894390;29;20056;-87
2024/01/03 00:34:39;;;;;;;366.15;188.27;;;;;;;1.02;97.60;98976.31;4896131;29;20049;-86
2024/01/03 00:37:30;;;;;;;360.63;166.07;;;;;;;1.05;97.48;98971.53;4884998;29;20052;-84
2024/01/03 00:40:31;;;;;;;315.45;146.18;;;;;;;1.04;96.79;98967.31;4892749;29;20048;-83
2024/01/03 00:43:16;;;;;;;315.23;144.13;;;;;;;1.06;96.86;98974.97;4905497;29;20052;-84
2024/01/03 00:46:02;;;;;;;280.20;127.07;;;;;;;1.07;96.50;98958.28;4904317;29;20040;-83
2024/01/03 00:48:47;;;;;;;349.30;160.57;;;;;;;1.05;96.85;98965.50;4901033;29;20052;-84
2024/01/03 00:51:36;;;;;;;277.70;130.40;;;;;;;1.08;97.30;98962.53;4888554;29;20052;-85
2024/01/03 00:54:22;;;;;;;218.82;105.97;;;;;;;1.12;97.66;98958.56;4882199;29;20060;-85
2024/01/03 00:57:08;;;;;;;185.75;93.38;;;;;;;1.16;97.09;98957.25;4888774;29;20048;-85
2024/01/03 00:59:53;;;;;;;142.60;69.97;;;;;;;1.21;96.85;98947.03;4882152;29;20051;-84
2024/01/03 01:02:39;;;;;;;122.28;58.90;;;;;;;1.21;96.95;98938.38;4902132;29;20051;-85
2024/01/03 01:05:25;;;;;;;135.30;61.75;;;;;;;1.26;96.97;98931.63;4901309;29;20056;-85
2024/01/03 01:08:10;;;;;;;163.57;78.78;;;;;;;1.29;96.89;98938.31;4888401;29;20055;-85
2024/01/03 01:10:56;;;;;;;230.18;113.10;;;;;;;1.33;96.68;98940.41;4883240;29;20056;-85
2024/01/03 01:13:42;;;;;;;206.10;108.32;;;;;;;1.24;96.41;98932.78;4894958;29;20424;-83
2024/01/03 01:16:27;;;;;;;224.45;117.80;;;;;;;1.26;96.63;98942.09;4892435;29;20044;-84
2024/01/03 01:19:13;;;;;;;238.55;124.75;;;;;;;1.34;96.93;98928.91;4879124;29;20407;-82
2024/01/03 01:21:58;;;;;;;249.77;123.95;;;;;;;1.38;96.52;98919.75;4879113;29;20056;-82
2024/01/03 01:24:44;;;;;;;244.52;128.75;;;;;;;1.44;96.57;98918.19;4900198;29;20037;-83
2024/01/03 01:27:29;;;;;;;226.00;111.68;;;;;;;1.48;96.73;98908.19;4893275;29;20037;-85
2024/01/03 01:30:14;;;;;;;236.43;121.60;;;;;;;1.45;96.12;98914.59;4892791;29;20403;-82
2024/01/03 01:32:59;;;;;;;221.85;118.40;;;;;;;1.46;96.79;98913.59;4885820;29;20510;-86
2024/01/03 01:35:45;;;;;;;221.13;116.50;;;;;;;1.46;96.98;98910.97;4905478;29;20052;-84
2024/01/03 01:38:31;;;;;;;205.52;108.85;;;;;;;1.39;96.58;98910.06;4902863;29;20395;-86
2024/01/03 01:41:16;;;;;;;175.50;97.55;;;;;;;1.42;96.71;98908.91;4894368;29;20029;-81
2024/01/03 01:44:05;;;;;;;168.73;92.93;;;;;;;1.43;96.19;98915.75;4901553;29;20064;-84
2024/01/03 01:46:51;;;;;;;182.25;98.13;;;;;;;1.46;96.59;98915.41;4909310;29;20059;-84
2024/01/03 01:49:39;;;;;;;180.10;96.28;;;;;;;1.46;96.15;98905.75;4901471;29;20059;-83
2024/01/03 01:52:25;;;;;;;184.30;99.22;;;;;;;1.51;96.41;98906.03;4883039;29;20065;-84
2024/01/03 01:55:12;;;;;;;182.80;97.68;;;;;;;1.50;96.59;98900.97;4901266;29;20056;-85
2024/01/03 01:57:57;;;;;;;183.43;98.60;;;;;;;1.54;96.04;98902.25;4878764;29;20051;-85
2024/01/03 02:00:43;;;;;;;192.02;97.30;;;;;;;1.57;96.08;98912.38;4891991;29;20055;-83
2024/01/03 02:03:32;;;;;;;178.13;96.10;;;;;;;1.61;96.71;98892.66;4893054;29;20071;-84
2024/01/03 02:06:20;;;;;;;166.35;90.72;;;;;;;1.66;95.78;98884.25;4886156;29;20056;-83
2024/01/03 02:09:05;;;;;;;174.77;94.88;;;;;;;1.60;95.69;98897.09;4878467;29;20165;-83
2024/01/03 02:11:50;;;;;;;177.15;96.43;;;;;;;1.65;95.48;98880.84;4891618;29;20060;-85
2024/01/03 02:14:36;;;;;;;181.00;98.32;;;;;;;1.65;95.82;98880.03;4887864;29;20055;-83
2024/01/03 02:17:22;;;;;;;179.52;91.15;;;;;;;1.69;95.59;98879.47;4894216;29;20060;-83
2024/01/03 02:20:08;;;;;;;192.02;103.38;;;;;;;1.68;95.86;98872.59;4898533;29;20044;-83
2024/01/03 02:22:53;;;;;;;179.25;96.20;;;;;;;1.72;96.20;98863.38;4899318;29;20056;-82
2024/01/03 02:25:40;;;;;;;183.02;98.03;;;;;;;1.71;95.83;98866.19;4891690;29;20048;-82
2024/01/03 02:28:25;;;;;;;177.18;92.13;;;;;;;1.72;95.73;98859.97;4898916;29;20060;-81
2024/01/03 02:31:11;;;;;;;187.25;92.05;;;;;;;1.68;95.26;98846.41;4898376;29;20055;-82
2024/01/03 02:33:57;;;;;;;164.85;89.07;;;;;;;1.72;95.74;98847.66;4884561;29;20513;-82
2024/01/03 02:36:42;;;;;;;169.10;87.78;;;;;;;1.78;95.10;98844.31;4898838;29;20055;-82
2024/01/03 02:39:27;;;;;;;145.73;71.78;;;;;;;1.87;95.28;98825.88;4898713;29;20047;-84
2024/01/03 02:42:13;;;;;;;174.82;89.72;;;;;;;1.82;95.34;98831.69;4902429;29;20055;-83
2024/01/03 02:44:59;;;;;;;163.48;77.68;;;;;;;1.80;95.44;98842.34;4903125;29;20048;-82
2024/01/03 02:47:44;;;;;;;214.93;108.85;;;;;;;1.80;95.52;98831.84;4902055;29;20052;-82
2024/01/03 02:50:30;;;;;;;190.40;96.40;;;;;;;1.79;94.74;98832.06;4901711;29;20048;-83
2024/01/03 02:53:15;;;;;;;194.25;97.32;;;;;;;1.76;94.84;98832.44;4902576;29;20064;-82
2024/01/03 02:56:01;;;;;;;208.30;107.03;;;;;;;1.69;94.89;98829.69;4907557;29;20056;-83
2024/01/03 02:58:46;;;;;;;180.45;91.35;;;;;;;1.69;95.06;98826.25;4896794;29;20399;-82
2024/01/03 03:01:33;;;;;;;177.52;89.97;;;;;;;1.69;95.18;98821.03;4904391;29;20067;-84
2024/01/03 03:04:18;;;;;;;169.50;84.38;;;;;;;1.70;94.86;98818.25;4904183;29;20048;-82
2024/01/03 03:07:04;;;;;;;158.25;83.78;;;;;;;1.71;94.73;98809.38;4892857;29;20063;-83
2024/01/03 03:09:50;;;;;;;144.50;75.47;;;;;;;1.68;94.81;98827.28;4900556;29;20051;-83
2024/01/03 03:12:35;;;;;;;135.73;74.72;;;;;;;1.76;94.93;98837.66;4890907;29;20055;-81
2024/01/03 03:15:20;;;;;;;146.52;78.38;;;;;;;1.72;94.92;98837.19;4902961;29;20514;-81
2024/01/03 03:18:07;;;;;;;149.73;78.03;;;;;;;1.71;94.63;98846.06;4891450;29;20063;-83
2024/01/03 03:20:52;;;;;;;139.82;75.53;;;;;;;1.73;95.04;98838.84;4908715;29;20067;-81
2024/01/03 03:23:40;;;;;;;136.68;75.63;;;;;;;1.73;94.91;98830.97;4909612;29;20063;-82
2024/01/03 03:26:25;;;;;;;143.52;72.57;;;;;;;1.73;95.02;98845.88;4908658;29;20052;-83
2024/01/03 03:29:11;;;;;;;134.85;70.53;;;;;;;1.81;95.19;98824.81;4904103;29;20076;-82
2024/01/03 03:31:57;;;;;;;136.93;72.15;;;;;;;1.85;94.98;98837.38;4901972;29;20052;-82
2024/01/03 03:34:42;;;;;;;145.00;75.28;;;;;;;1.90;95.04;98830.75;4888923;29;20522;-82
2024/01/03 03:37:27;;;;;;;144.68;74.07;;;;;;;1.91;95.09;98827.94;4905232;29;20059;-82
2024/01/03 03:40:12;;;;;;;143.68;72.97;;;;;;;1.93;95.30;98820.72;4905469;29;20415;-83
2024/01/03 03:42:58;;;;;;;134.02;69.82;;;;;;;1.96;94.67;98832.66;4892386;29;20056;-81
2024/01/03 03:45:44;;;;;;;137.73;71.18;;;;;;;2.00;95.01;98812.94;4911101;29;20047;-82
2024/01/03 03:48:29;;;;;;;138.55;71.78;;;;;;;2.05;95.29;98821.06;4904228;29;20537;-81
2024/01/03 03:51:15;;;;;;;143.10;72.05;;;;;;;2.06;94.65;98813.00;4894455;29;20060;-81
2024/01/03 03:54:00;;;;;;;251.65;97.70;;;;;;;2.09;94.57;98812.63;4902220;29;20498;-81
2024/01/03 03:56:46;;;;;;;158.63;76.30;;;;;;;2.11;94.84;98815.09;4900941;29;20056;-82
2024/01/03 03:59:32;;;;;;;132.18;66.35;;;;;;;2.08;94.27;98803.16;4901521;29;20060;-81
2024/01/03 04:02:17;;;;;;;138.60;71.43;;;;;;;2.09;94.42;98803.97;4901220;29;20056;-82
2024/01/03 04:05:03;;;;;;;153.23;77.50;;;;;;;2.06;94.79;98810.38;4900739;29;20060;-81
2024/01/03 04:07:48;;;;;;;130.18;67.75;;;;;;;2.09;95.03;98806.59;4901208;29;20060;-82
2024/01/03 04:10:34;;;;;;;133.32;71.75;;;;;;;2.16;95.26;98799.59;4901461;29;20052;-83
2024/01/03 04:13:19;;;;;;;127.88;63.60;;;;;;;2.18;94.48;98800.22;4900393;29;20063;-83
2024/01/03 04:16:07;;;;;;;138.55;69.47;;;;;;;2.12;95.04;98806.22;4900820;29;20048;-83
2024/01/03 04:18:53;;;;;;;140.35;72.53;;;;;;;2.18;94.92;98804.66;4901030;29;20075;-83
2024/01/03 04:21:40;;;;;;;136.38;63.60;;;;;;;2.25;94.58;98788.00;4902816;29;20055;-82
2024/01/03 04:24:25;;;;;;;139.88;70.47;;;;;;;2.27;94.37;98783.38;4895526;29;20063;-83
2024/01/03 04:27:10;;;;;;;165.23;81.70;;;;;;;2.24;94.13;98775.91;4903508;29;20506;-83
2024/01/03 04:29:56;;;;;;;149.73;74.10;;;;;;;2.26;94.63;98766.03;4904560;29;20399;-84
2024/01/03 04:32:42;;;;;;;149.25;75.18;;;;;;;2.25;94.45;98780.13;4901880;29;20059;-82
2024/01/03 04:35:28;;;;;;;152.02;74.63;;;;;;;2.25;94.10;98777.50;4903103;29;20596;-82
2024/01/03 04:38:14;;;;;;;144.20;68.88;;;;;;;2.30;93.86;98783.00;4900816;29;20059;-82
2024/01/03 04:40:59;;;;;;;145.02;73.78;;;;;;;2.34;94.40;98780.81;4900846;29;20055;-83
2024/01/03 04:43:45;;;;;;;130.95;69.65;;;;;;;2.38;93.86;98778.63;4901134;29;20063;-83
2024/01/03 04:46:30;;;;;;;141.77;68.63;;;;;;;2.39;93.81;98775.03;4901642;29;20056;-83
2024/01/03 04:49:16;;;;;;;140.35;72.53;;;;;;;2.45;93.94;98776.91;4901796;29;20055;-82
2024/01/03 04:52:01;;;;;;;155.35;74.50;;;;;;;2.46;94.06;98778.53;4885980;29;20059;-83
2024/01/03 04:54:47;;;;;;;143.23;72.45;;;;;;;2.46;93.79;98766.22;4900449;29;20404;-82
2024/01/03 04:57:33;;;;;;;143.27;70.90;;;;;;;2.51;93.68;98758.59;4901041;29;20072;-83
2024/01/03 05:00:18;;;;;;;147.65;76.22;;;;;;;2.46;94.09;98750.47;4874519;29;20399;-82
2024/01/03 05:03:04;;;;;;;133.68;70.45;;;;;;;2.49;94.01;98770.28;4901075;29;20439;-83
2024/01/03 05:05:49;;;;;;;132.35;70.63;;;;;;;2.52;94.32;98762.03;4888112;29;20051;-82
2024/01/03 05:08:35;;;;;;;144.50;72.05;;;;;;;2.46;94.18;98752.28;4901372;29;20505;-82
2024/01/03 05:11:21;;;;;;;148.90;79.57;;;;;;;2.44;94.46;98751.66;4899078;29;20052;-82
2024/01/03 05:14:07;;;;;;;139.95;73.40;;;;;;;2.43;94.08;98747.41;4900412;29;20395;-82
2024/01/03 05:16:52;;;;;;;136.32;72.82;;;;;;;2.43;94.36;98757.91;4900364;29;20047;-82
2024/01/03 05:19:37;;;;;;;138.27;71.47;;;;;;;2.45;94.40;98771.66;4899850;29;20063;-80
2024/01/03 05:22:23;;;;;;;144.73;76.50;;;;;;;2.47;94.59;98774.88;4905806;29;20079;-83
2024/01/03 05:25:09;;;;;;;120.35;66.40;;;;;;;2.40;94.22;98781.88;4900245;29;20499;-83
2024/01/03 05:27:54;;;;;;;118.22;61.95;;;;;;;2.39;94.62;98761.91;4872895;29;20056;-84
2024/01/03 05:30:40;;;;;;;126.32;64.85;;;;;;;2.41;94.17;98773.00;4898879;29;20075;-86
2024/01/03 05:33:25;;;;;;;134.10;70.47;;;;;;;2.47;94.40;98772.25;4885595;29;20506;-82
2024/01/03 05:36:11;;;;;;;139.90;71.95;;;;;;;2.45;94.72;98775.09;4899530;29;20055;-82
2024/01/03 05:38:56;;;;;;;144.80;74.30;;;;;;;2.50;94.66;98777.13;4885872;29;20048;-82
2024/01/03 05:41:42;;;;;;;181.10;95.15;;;;;;;2.50;95.04;98756.16;4885774;29;20051;-84
2024/01/03 05:44:28;;;;;;;211.68;113.97;;;;;;;2.51;94.76;98766.47;4885899;29;20395;-83
2024/01/03 05:47:13;;;;;;;187.60;100.15;;;;;;;2.49;95.16;98765.84;4886947;29;20483;-85
2024/01/03 05:49:59;;;;;;;136.52;71.82;;;;;;;2.53;93.98;98772.31;4885903;29;20052;-86
2024/01/03 05:52:44;;;;;;;150.15;80.97;;;;;;;2.54;94.50;98773.97;4899421;29;20403;-84
2024/01/03 05:55:31;;;;;;;138.52;70.30;;;;;;;2.57;94.85;98762.28;4899298;29;20052;-83
2024/01/03 05:58:17;;;;;;;116.22;59.38;;;;;;;2.50;94.55;98756.97;4891521;29;20506;-82
2024/01/03 06:01:02;;;;;;;133.80;71.22;;;;;;;2.53;94.79;98758.41;4885282;29;20157;-85
2024/01/03 06:03:49;;;;;;;117.07;61.20;;;;;;;2.50;94.43;98756.97;4886175;29;20055;-82
2024/01/03 06:06:35;;;;;;;127.15;73.70;;;;;;;2.53;94.08;98772.31;4887775;29;20047;-82
2024/01/03 06:09:20;;;;;;;126.28;66.13;;;;;;;2.53;94.35;98764.44;4904348;29;20052;-82
2024/01/03 06:12:06;;;;;;;129.13;68.72;;;;;;;2.53;94.05;98768.88;4898203;29;20056;-84
2024/01/03 06:14:52;;;;;;;110.80;55.63;;;;;;;2.50;94.10;98770.06;4905244;29;20055;-83
2024/01/03 06:17:38;;;;;;;116.97;63.90;;;;;;;2.52;94.49;98762.84;4891822;29;20056;-85
2024/01/03 06:20:23;;;;;;;119.90;64.72;;;;;;;2.55;94.78;98766.91;4891841;29;20063;-84
2024/01/03 06:23:09;;;;;;;119.95;61.60;;;;;;;2.61;93.86;98775.84;4891260;29;20060;-83
2024/01/03 06:25:54;;;;;;;118.75;63.67;;;;;;;2.60;94.36;98780.28;4879560;29;20040;-84
2024/01/03 06:28:40;;;;;;;127.60;63.92;;;;;;;2.59;94.54;98786.50;4898470;29;20079;-83
2024/01/03 06:31:26;;;;;;;125.82;66.18;;;;;;;2.64;94.87;98793.81;4906506;29;20060;-84
2024/01/03 06:34:11;;;;;;;115.88;60.40;;;;;;;2.69;93.95;98792.22;4904660;29;20051;-82
2024/01/03 06:37:00;;;;;;;130.50;66.03;;;;;;;2.73;94.48;98792.69;4902524;29;20047;-83
2024/01/03 06:39:46;;;;;;;122.93;65.82;;;;;;;2.73;94.34;98796.13;4901849;29;20055;-84
2024/01/03 06:42:31;;;;;;;126.28;66.32;;;;;;;2.74;94.15;98797.72;4903880;29;20072;-84
2024/01/03 06:45:16;;;;;;;140.73;72.45;;;;;;;2.82;94.15;98806.47;4892793;29;20055;-84
2024/01/03 06:48:02;;;;;;;139.38;73.10;;;;;;;2.87;93.97;98807.53;4899137;29;20047;-84
2024/01/03 06:50:49;;;;;;;160.82;83.47;;;;;;;2.87;93.81;98796.22;4898416;29;20122;-83
2024/01/03 06:53:35;;;;;;;137.32;71.95;;;;;;;2.87;94.05;98799.66;4872077;29;20060;-83
2024/01/03 06:56:21;;;;;;;147.93;76.30;;;;;;;2.87;94.23;98807.53;4890831;29;20056;-84
2024/01/03 06:59:05;;;;;;;144.25;77.93;;;;;;;2.93;93.68;98812.00;4898332;29;20071;-84
2024/01/03 07:01:51;;;;;;;163.65;89.90;;;;;;;2.97;93.79;98809.81;4897041;29;20055;-84
2024/01/03 07:04:38;;;;;;;152.45;81.38;;;;;;;2.98;93.67;98816.72;4877812;29;20499;-82
2024/01/03 07:07:23;;;;;;;156.70;86.72;;;;;;;3.00;93.37;98817.31;4886248;29;20077;-84
2024/01/03 07:10:09;;;;;;;122.07;65.43;;;;;;;3.04;93.50;98815.09;4902997;29;20051;-83
2024/01/03 07:12:55;;;;;;;102.10;54.80;;;;;;;3.03;93.14;98813.50;4904979;29;20056;-83
2024/01/03 07:15:41;;;;;;;84.03;41.97;;;;;;;2.99;93.00;98823.56;4889016;29;20068;-82
2024/01/03 07:18:27;;;;;;;115.82;62.03;;;;;;;3.01;93.23;98816.31;4903610;29;20052;-82
2024/01/03 07:21:12;;;;;;;95.95;53.15;;;;;;;2.99;92.57;98818.31;4906740;29;20032;-83
2024/01/03 07:23:58;;;;;;;92.85;49.67;;;;;;;2.99;92.87;98829.63;4918738;29;20051;-83
2024/01/03 07:26:43;;;;;;;92.65;50.10;;;;;;;3.00;92.66;98819.94;4907799;29;20055;-84
2024/01/03 07:29:29;;;;;;;104.88;52.97;;;;;;;3.04;93.09;98829.06;4908458;29;20056;-83
2024/01/03 07:32:16;;;;;;;96.50;54.40;;;;;;;3.08;93.47;98826.88;4891764;29;20055;-82
2024/01/03 07:35:01;;;;;;;85.88;51.33;;;;;;;3.09;92.94;98824.03;4887569;29;20059;-83
2024/01/03 07:37:47;;;;;;;94.32;52.00;;;;;;;3.13;93.05;98834.97;4901285;29;20052;-82
2024/01/03 07:40:32;;;;;;;92.43;50.92;;;;;;;3.11;93.10;98831.75;4883714;29;20063;-82
2024/01/03 07:43:18;;;;;;;96.07;50.15;;;;;;;3.16;92.68;98834.59;4898699;29;20055;-82
2024/01/03 07:46:03;;;;;;;95.63;52.40;;;;;;;3.27;92.95;98835.91;4898016;29;20072;-83
2024/01/03 07:48:49;;;;;;;93.60;53.05;;;;;;;3.28;92.59;98833.06;4871069;29;20530;-82
2024/01/03 07:51:38;;;;;;;103.30;54.65;;;;;;;3.35;92.35;98836.53;4899344;29;20056;-77
2024/01/03 07:54:23;;;;;;;116.65;62.28;;;;;;;3.39;92.29;98837.78;4897811;29;20075;-79
2024/01/03 07:57:09;;;;;;;99.28;57.08;;;;;;;3.52;92.24;98828.38;4900521;29;20064;-79
2024/01/03 07:59:54;;;;;;;105.55;59.13;;;;;;;3.62;92.75;98832.25;4902457;29;20068;-77
2024/01/03 08:02:40;;;;;;;98.70;53.90;;;;;;;3.74;92.08;98831.72;4908268;29;20048;-75
2024/01/03 08:05:25;;;;;;;104.97;59.03;;;;;;;3.87;91.69;98832.56;4904385;29;20052;-78
2024/01/03 08:08:12;;;;;;;104.00;55.85;;;;;;;3.79;91.09;98824.03;4906370;29;20056;-79
2024/01/03 08:10:57;;;;;;;103.85;56.83;;;;;;;3.96;91.46;98825.34;4907646;29;20056;-81
2024/01/03 08:13:44;;;;;;;103.32;58.85;;;;;;;4.11;91.12;98820.75;4907100;29;20068;-78
2024/01/03 08:16:29;;;;;;;117.40;64.45;;;;;;;4.18;90.99;98824.19;4904431;29;20052;-78
2024/01/03 08:19:15;;;;;;;133.30;66.05;;;;;;;4.21;89.91;98822.19;4904283;29;20059;-78
2024/01/03 08:22:01;;;;;;;141.20;74.13;;;;;;;4.29;89.23;98816.72;4903357;29;20658;-77
2024/01/03 08:24:48;;;;;;;141.15;77.22;;;;;;;4.39;89.12;98807.47;4905011;29;20068;-77
2024/01/03 08:27:36;;;;;;;115.47;63.25;;;;;;;4.41;89.26;98808.06;4903507;29;20044;-77
2024/01/03 08:30:21;;;;;;;106.70;59.30;;;;;;;4.56;89.71;98804.44;4908080;29;20056;-77
2024/01/03 08:33:08;;;;;;;99.45;54.65;;;;;;;4.65;89.65;98803.22;4912439;29;20051;-77
2024/01/03 08:35:53;;;;;;;107.95;58.28;;;;;;;4.62;89.53;98801.00;4900708;29;20147;-78
2024/01/03 08:38:39;;;;;;;89.25;50.00;;;;;;;4.74;89.24;98799.41;4902348;29;20051;-79
2024/01/03 08:41:25;;;;;;;88.03;50.00;;;;;;;4.82;89.14;98796.53;4906756;29;20059;-81
2024/01/03 08:44:13;;;;;;;91.45;48.80;;;;;;;4.95;88.18;98800.19;4900755;29;20051;-83
2024/01/03 08:46:58;;;;;;;97.72;55.63;;;;;;;4.98;87.88;98790.09;4900617;29;20056;-80
2024/01/03 08:49:45;;;;;;;111.00;56.63;;;;;;;5.09;88.43;98794.72;4907337;29;20052;-83
2024/01/03 08:52:32;;;;;;;147.88;72.35;;;;;;;5.14;87.82;98798.56;4900603;29;20059;-81
2024/01/03 08:55:17;;;;;;;138.13;72.93;;;;;;;5.14;87.94;98794.13;4900285;29;20055;-81
2024/01/03 08:58:03;;;;;;;140.52;78.55;;;;;;;5.05;87.39;98792.72;4900199;29;20052;-83
2024/01/03 09:00:48;;;;;;;147.13;80.97;;;;;;;5.15;87.36;98787.03;4906692;29;20071;-80
2024/01/03 09:03:35;;;;;;;176.35;98.60;;;;;;;5.33;87.09;98782.72;4900478;29;20063;-81
2024/01/03 09:06:25;;;;;;;182.50;100.45;;;;;;;5.27;88.57;98780.09;4899974;29;20063;-82
2024/01/03 09:09:10;;;;;;;182.48;104.07;;;;;;;5.56;87.50;98784.06;4900437;29;20048;-80
2024/01/03 09:11:55;;;;;;;187.35;102.45;;;;;;;5.55;86.63;98783.28;4892456;29;20052;-80
2024/01/03 09:14:42;;;;;;;158.25;98.57;;;;;;;5.49;86.28;98783.31;4872758;29;20052;-83
2024/01/03 09:17:28;;;;;;;180.40;104.07;;;;;;;5.85;86.46;98785.38;4879310;29;20047;-80
2024/01/03 09:20:16;;;;;;;161.95;95.00;;;;;;;5.77;85.34;98778.53;4879582;29;20045;-83
2024/01/03 09:23:01;;;;;;;171.68;103.57;;;;;;;5.91;85.90;98774.00;4873325;29;20051;-82
2024/01/03 09:25:47;;;;;;;172.65;100.28;;;;;;;5.80;86.06;98774.66;4880954;29;20052;-80
2024/01/03 09:28:34;;;;;;;145.45;87.90;;;;;;;6.01;86.17;98782.28;4900355;29;20048;-81
2024/01/03 09:31:20;;;;;;;136.27;75.15;;;;;;;5.83;86.23;98787.44;4906061;29;20051;-81
2024/01/03 09:34:05;;;;;;;154.15;87.57;;;;;;;6.12;86.65;98787.94;4900465;29;20060;-81
2024/01/03 09:36:53;;;;;;;152.20;89.30;;;;;;;6.40;86.67;98787.56;4899368;29;20064;-81
2024/01/03 09:39:40;;;;;;;162.30;94.60;;;;;;;6.37;85.72;98788.78;4899648;29;20056;-85
2024/01/03 09:42:25;;;;;;;154.15;91.38;;;;;;;6.54;86.09;98791.72;4899626;29;20051;-82
2024/01/03 09:45:11;;;;;;;152.25;87.95;;;;;;;6.64;85.24;98805.28;4899015;29;20059;-82
2024/01/03 09:47:57;;;;;;;146.43;87.93;;;;;;;6.52;85.35;98798.22;4899613;29;20506;-86
2024/01/03 09:50:45;;;;;;;127.50;76.13;;;;;;;6.62;85.73;98798.59;4872290;29;20052;-81
2024/01/03 09:53:31;;;;;;;117.57;71.00;;;;;;;6.67;85.88;98804.81;4899436;29;20170;-84
2024/01/03 09:56:17;;;;;;;99.53;56.67;;;;;;;6.61;85.59;98800.44;4885424;29;20051;-81
2024/01/03 09:59:02;;;;;;;108.55;62.20;;;;;;;6.66;86.32;98805.06;4899302;29;20511;-82
2024/01/03 10:01:58;;;;;;;109.18;61.80;;;;;;;6.91;87.06;98805.06;4898789;29;20055;-78
2024/01/03 10:04:46;;;;;;;108.63;59.47;;;;;;;7.14;86.16;98807.09;4885554;29;20051;-78
2024/01/03 10:07:32;;;;;;;97.82;55.35;;;;;;;7.31;86.45;98805.50;4898198;29;20055;-81
2024/01/03 10:10:45;;;;;;;96.38;53.03;;;;;;;7.28;85.62;98811.22;4905434;29;20607;-78
2024/01/03 10:13:34;;;;;;;79.32;47.78;;;;;;;7.28;85.32;98798.03;4899259;29;20051;-81
2024/01/03 10:16:27;;;;;;;83.90;50.00;;;;;;;7.22;85.67;98798.88;4884836;29;20062;-81
2024/01/03 10:19:18;;;;;;;88.80;52.47;;;;;;;7.18;85.94;98785.31;4900671;29;20051;-78
2024/01/03 10:22:05;;;;;;;131.23;59.22;;;;;;;6.96;85.27;98778.81;4891391;29;20063;-82
2024/01/03 10:24:51;;;;;;;114.93;62.97;;;;;;;7.15;85.38;98772.53;4898521;29;20130;-80
2024/01/03 10:27:36;;;;;;;109.70;56.90;;;;;;;7.23;85.30;98768.78;4890920;29;20060;-81
2024/01/03 10:30:22;;;;;;;86.75;49.75;;;;;;;7.16;85.08;98768.84;4899079;29;20055;-82
2024/01/03 10:33:11;;;;;;;99.80;56.20;;;;;;;7.08;84.99;98771.78;4899316;29;20055;-80
2024/01/03 10:35:56;;;;;;;82.88;46.83;;;;;;;7.04;85.34;98767.16;4898746;29;20126;-77
2024/01/03 10:38:42;;;;;;;81.95;48.03;;;;;;;7.13;85.67;98763.19;4891205;29;20044;-80
2024/01/03 10:41:31;;;;;;;78.40;47.60;;;;;;;7.25;85.90;98755.38;4884661;29;20056;-80
2024/01/03 10:44:18;;;;;;;84.68;50.95;;;;;;;7.30;85.83;98772.19;4884884;29;20059;-79
2024/01/03 10:47:04;;;;;;;82.25;46.78;;;;;;;7.26;85.36;98759.63;4898187;29;20071;-83
2024/01/03 10:49:51;;;;;;;84.72;52.83;;;;;;;7.40;85.01;98766.38;4884788;29;20063;-80
2024/01/03 10:52:43;;;;;;;87.97;52.20;;;;;;;7.54;86.00;98751.16;4904828;29;20060;-78
2024/01/03 10:55:37;;;;;;;84.63;51.88;;;;;;;7.30;86.69;98764.25;4905210;29;20399;-81
2024/01/03 10:58:23;;;;;;;98.85;57.17;;;;;;;7.35;86.53;98764.38;4900724;29;20056;-79
2024/01/03 11:01:45;;;;;;;109.93;59.40;;;;;;;7.52;87.32;98751.41;4899770;29;20051;-78
2024/01/03 11:04:38;;;;;;;101.80;57.15;;;;;;;7.33;87.37;98753.25;4878614;29;20051;-80
2024/01/03 11:07:31;;;;;;;101.93;57.72;;;;;;;7.51;87.78;98760.34;4898818;29;20507;-81
2024/01/03 11:10:49;;;;;;;93.38;54.45;;;;;;;7.61;87.48;98757.19;4898681;29;20048;-80
2024/01/03 11:13:40;;;;;;;92.05;50.88;;;;;;;7.55;87.82;98756.25;4898560;29;20055;-80
2024/01/03 11:16:37;;;;;;;101.47;55.05;;;;;;;7.80;87.74;98758.81;4899776;29;20056;-79
2024/01/03 11:19:30;;;;;;;86.22;48.63;;;;;;;7.78;87.64;98750.28;4884382;29;20051;-78
2024/01/03 11:22:16;;;;;;;77.22;46.42;;;;;;;7.86;87.58;98741.22;4898233;29;20055;-79
2024/01/03 11:25:01;;;;;;;87.30;49.90;;;;;;;8.09;87.90;98735.22;4898362;29;20060;-80
2024/01/03 11:27:47;;;;;;;81.72;49.45;;;;;;;8.17;86.78;98726.94;4890791;29;20067;-78
2024/01/03 11:30:42;;;;;;;81.40;49.55;;;;;;;8.24;86.63;98729.47;4898300;29;20067;-81
2024/01/03 11:33:33;;;;;;;76.85;46.83;;;;;;;8.11;86.58;98746.38;4893504;29;20051;-82
2024/01/03 11:36:47;;;;;;;75.28;43.95;;;;;;;8.01;86.17;98738.97;4894661;29;20047;-82
2024/01/03 11:39:41;;;;;;;75.60;45.57;;;;;;;8.12;86.11;98721.53;4902001;29;20043;-78
2024/01/03 11:42:35;;;;;;;100.68;58.72;;;;;;;8.07;85.33;98713.44;4888536;29;20302;-80
2024/01/03 11:45:22;;;;;;;87.70;52.20;;;;;;;8.03;85.48;98714.94;4902213;29;20055;-80
2024/01/03 11:48:09;;;;;;;89.95;51.13;;;;;;;8.00;85.95;98715.41;4902394;29;20514;-80
2024/01/03 11:50:58;;;;;;;84.55;51.75;;;;;;;7.99;86.29;98713.75;4895273;29;20051;-79
2024/01/03 11:53:43;;;;;;;86.22;51.47;;;;;;;8.02;86.13;98697.44;4875401;29;20056;-81
2024/01/03 11:56:33;;;;;;;86.10;50.88;;;;;;;8.09;85.85;98698.97;4903431;29;20522;-80
2024/01/03 11:59:25;;;;;;;74.72;46.45;;;;;;;8.07;85.08;98689.63;4901821;29;20068;-83
2024/01/03 12:02:14;;;;;;;77.50;48.60;;;;;;;8.09;85.97;98695.53;4892929;29;20052;-83
2024/01/03 12:05:00;;;;;;;85.72;49.53;;;;;;;8.13;86.91;98680.78;4902401;29;20060;-81
2024/01/03 12:07:47;;;;;;;127.53;72.15;;;;;;;8.13;87.19;98674.69;4903700;29;20048;-78
2024/01/03 12:10:33;;;;;;;151.75;89.75;;;;;;;8.13;87.81;98666.75;4908049;29;20502;-82
2024/01/03 12:13:24;;;;;;;147.50;91.65;;;;;;;8.16;88.22;98656.50;4889000;29;20056;-82
2024/01/03 12:16:22;;;;;;;161.73;99.55;;;;;;;8.16;88.17;98635.34;4905568;29;20415;-86
2024/01/03 12:19:08;;;;;;;172.55;105.43;;;;;;;8.20;88.53;98633.84;4884221;29;20522;-79
2024/01/03 12:21:58;;;;;;;166.15;104.93;;;;;;;8.29;88.26;98634.31;4889065;29;20044;-80
2024/01/03 12:24:47;;;;;;;153.43;96.70;;;;;;;8.30;88.82;98628.81;4908703;29;20048;-82
2024/01/03 12:27:34;;;;;;;147.38;94.43;;;;;;;8.29;88.58;98627.19;4900410;29;20051;-81
2024/01/03 12:30:22;;;;;;;143.98;90.45;;;;;;;8.30;88.54;98620.03;4900603;29;20052;-82
2024/01/03 12:33:12;;;;;;;188.60;112.20;;;;;;;8.37;88.38;98617.28;4899959;29;20063;-80
2024/01/03 12:36:03;;;;;;;177.25;109.53;;;;;;;8.29;88.35;98623.72;4906495;29;20041;-78
2024/01/03 12:38:58;;;;;;;244.60;146.73;;;;;;;8.31;88.73;98609.22;4900883;29;20048;-81
2024/01/03 12:41:46;;;;;;;205.30;128.43;;;;;;;8.28;88.79;98609.69;4907374;29;20036;-81
2024/01/03 12:44:32;;;;;;;216.88;132.57;;;;;;;8.30;88.53;98604.97;4900271;29;20052;-80
2024/01/03 12:47:19;;;;;;;226.20;139.98;;;;;;;8.33;88.65;98606.34;4901263;29;20036;-79